Lindsborg, Kansas
Current Conditions -  °F | °C
As of 8:53 PM on Friday 19 Dec 2014 (Local Time) from KSLN Reporting Station
Haze Haze  
Wind Chill: 26°   Ceiling: Unl
Heat Index: 32°   Visibility: 5mi
Dew Point: 29°   Wind: 6mph
Humidity: 88%   Direction: 180°S
Pressure: 30.14"   Gusts: NA
Location:  38.57°N, 97.67°W
Report Text: KSLN 200253Z 18005KT 5SM BR CLR 00/M02 A3014 RMK AO2 SLP220 T00001017 56004
Loading
Personal Weather Stations






























Interactive Weather Map New forecast layout! Learn more

10-Day Weather Forecast

Advertisements
Track Severe Weather on mobile